createdAt,value
2022-10-26T00:03:20.408Z,1165.1
2022-10-26T00:05:03.684Z,1163.5
2022-10-26T00:06:47.123Z,1163.8
2022-10-26T00:08:30.487Z,1162.5
2022-10-26T00:10:13.883Z,1161.4
2022-10-26T00:11:57.341Z,1157.7
2022-10-26T00:13:40.666Z,1155
2022-10-26T00:15:24.087Z,1157.6
2022-10-26T00:18:50.542Z,1152.1
2022-10-26T00:20:33.947Z,1147.6
2022-10-26T00:22:17.397Z,1144.3
2022-10-26T00:24:00.743Z,1143
2022-10-26T00:25:44.134Z,1141.2
2022-10-26T00:27:27.579Z,1141.1
2022-10-26T00:29:10.927Z,1140.8
2022-10-26T00:30:54.333Z,1136.1
2022-10-26T00:34:20.790Z,1130.3
2022-10-26T00:36:04.179Z,1131.5
2022-10-26T00:37:47.626Z,1132.1
2022-10-26T00:39:30.969Z,1133.3
2022-10-26T00:41:14.381Z,1133.8
2022-10-26T00:42:57.821Z,1133.4
2022-10-26T00:44:41.172Z,1131.5
2022-10-26T00:46:24.580Z,1132.3
2022-10-26T00:51:33.826Z,1116.5
2022-10-26T00:53:17.190Z,1116.5
2022-10-26T00:55:00.603Z,1113.4
2022-10-26T00:56:44.027Z,1114.3
2022-10-26T00:58:27.380Z,1113.1
2022-10-26T01:00:10.790Z,1113.5
2022-10-26T01:01:54.228Z,1112.4
2022-10-26T01:03:37.584Z,1111
2022-10-26T01:07:04.072Z,1106.9
2022-10-26T01:08:47.466Z,1108.4
2022-10-26T01:10:30.860Z,1111.4
2022-10-26T01:12:14.277Z,1110.8
2022-10-26T01:13:57.641Z,1109.5
2022-10-26T01:15:41.038Z,1108.4
2022-10-26T01:17:24.480Z,1110.1
2022-10-26T01:19:07.817Z,1111.4
2022-10-26T01:24:17.077Z,1103
2022-10-26T01:26:00.481Z,1101.7
2022-10-26T01:27:43.850Z,1102.6
2022-10-26T01:29:27.244Z,1103
2022-10-26T01:31:11.645Z,1101.1
2022-10-26T01:32:54.051Z,1098.6
2022-10-26T01:34:37.445Z,1098.4
2022-10-26T01:36:20.917Z,1096.6
2022-10-26T01:39:47.314Z,1093.3
2022-10-26T01:41:30.833Z,1097.2
2022-10-26T01:43:14.107Z,1097.5
2022-10-26T01:44:57.502Z,1093.2
2022-10-26T01:46:40.938Z,1088.3
2022-10-26T01:48:24.295Z,1084
2022-10-26T01:50:07.703Z,1083.2
2022-10-26T01:51:51.070Z,1084.7
2022-10-26T01:57:00.414Z,1088.4
2022-10-26T01:58:43.750Z,1081.4
2022-10-26T02:00:27.136Z,1080.2
2022-10-26T02:02:10.512Z,1080.4
2022-10-26T02:03:53.929Z,1079.4
2022-10-26T02:05:37.337Z,1080.5
2022-10-26T02:07:20.700Z,1078.4
2022-10-26T02:09:04.107Z,1078.4
2022-10-26T02:12:30.623Z,1071.6
2022-10-26T02:14:14.027Z,1069.1
2022-10-26T02:15:57.386Z,1067
2022-10-26T02:17:40.757Z,1066.6
2022-10-26T02:19:24.174Z,1065.1
2022-10-26T02:21:07.587Z,1064.4
2022-10-26T02:22:50.953Z,1061.5
2022-10-26T02:24:34.348Z,1057.3
2022-10-26T02:29:43.591Z,1057.5
2022-10-26T02:31:27.028Z,1058.1
2022-10-26T02:33:10.380Z,1054.6
2022-10-26T02:34:53.797Z,1055.7
2022-10-26T02:36:37.232Z,1055.6
2022-10-26T02:38:20.581Z,1057
2022-10-26T02:40:04.016Z,1055
2022-10-26T02:41:47.345Z,1053.5
2022-10-26T02:45:13.837Z,1052.9
2022-10-26T02:46:57.215Z,1053
2022-10-26T02:48:40.615Z,1051
2022-10-26T02:50:24.045Z,1046.2
2022-10-26T02:52:07.402Z,1041.7
2022-10-26T02:53:50.801Z,1039
2022-10-26T02:55:34.246Z,1035.7
2022-10-26T02:57:17.593Z,1033
2022-10-26T03:00:44.089Z,1027.4
2022-10-26T03:02:27.530Z,1025.8
2022-10-26T03:04:10.861Z,1025.6
2022-10-26T03:05:54.286Z,1022.3
2022-10-26T03:07:37.647Z,1021
2022-10-26T03:09:21.054Z,1021.3
2022-10-26T03:11:04.489Z,1022.6
2022-10-26T03:12:47.832Z,1024.6
2022-10-26T03:17:57.083Z,1019.4
2022-10-26T03:19:40.512Z,1020.3
2022-10-26T03:21:23.935Z,1018.5
2022-10-26T03:23:07.270Z,1017.1
2022-10-26T03:24:50.719Z,1017.5
2022-10-26T03:26:34.068Z,1015.6
2022-10-26T03:28:17.474Z,1010.5
2022-10-26T03:30:00.898Z,1005.6
2022-10-26T03:31:44.580Z,1001.5
2022-10-26T03:33:28.030Z,998.2
2022-10-26T03:35:11.404Z,994.8
2022-10-26T03:36:54.783Z,990.1
2022-10-26T03:38:38.152Z,989.6
2022-10-26T03:40:21.551Z,991.1
2022-10-26T03:42:04.985Z,992.3
2022-10-26T03:43:48.337Z,991.7
2022-10-26T03:45:32.031Z,989.6
2022-10-26T03:47:15.459Z,985.3
2022-10-26T03:48:58.868Z,985
2022-10-26T03:50:42.234Z,986.7
2022-10-26T03:52:25.631Z,985.6
2022-10-26T03:54:09.071Z,986.4
2022-10-26T03:55:52.409Z,988.6
2022-10-26T03:57:35.836Z,988.1
2022-10-26T03:59:19.520Z,986.4
2022-10-26T04:01:03.009Z,986.5
2022-10-26T04:02:46.306Z,984.2
2022-10-26T04:04:29.715Z,982.2
2022-10-26T04:06:13.160Z,982.1
2022-10-26T04:07:56.500Z,980.7
2022-10-26T04:09:39.920Z,979.7
2022-10-26T04:11:23.297Z,980.6
2022-10-26T04:13:07.067Z,975.4
2022-10-26T04:14:50.384Z,975.3
2022-10-26T04:16:33.813Z,974.5
2022-10-26T04:18:17.172Z,975.6
2022-10-26T04:20:00.602Z,974.3
2022-10-26T04:21:44.013Z,969.3
2022-10-26T04:23:27.372Z,968.8
2022-10-26T04:25:10.768Z,966.3
2022-10-26T04:26:54.477Z,966.1
2022-10-26T04:28:37.889Z,967
2022-10-26T04:30:21.246Z,963.3
2022-10-26T04:32:04.646Z,960.1
2022-10-26T04:33:48.096Z,959.7
2022-10-26T04:35:31.479Z,960.1
2022-10-26T04:37:14.897Z,960.1
2022-10-26T04:38:58.316Z,957.6
2022-10-26T04:40:41.995Z,957.3
2022-10-26T04:42:25.332Z,952.4
2022-10-26T04:44:08.784Z,950.8
2022-10-26T04:45:52.175Z,949.4
2022-10-26T04:47:35.516Z,948.5
2022-10-26T04:49:18.966Z,948.6
2022-10-26T04:51:02.378Z,950.4
2022-10-26T04:56:11.557Z,950.4
2022-10-26T04:57:54.970Z,949.6
2022-10-26T04:59:38.392Z,947.6
2022-10-26T05:01:21.785Z,946.7
2022-10-26T05:03:05.141Z,946.3
2022-10-26T05:04:48.582Z,944.2
2022-10-26T05:06:31.976Z,943.2
2022-10-26T05:08:15.359Z,946.1
2022-10-26T05:09:59.042Z,944.8
2022-10-26T05:11:42.486Z,938.4
2022-10-26T05:13:25.825Z,938.1
2022-10-26T05:15:09.342Z,939.7
2022-10-26T05:16:52.672Z,941.4
2022-10-26T05:18:36.004Z,939.4
2022-10-26T05:20:19.431Z,938.4
2022-10-26T05:22:02.864Z,934.1
2022-10-26T05:23:46.559Z,933.8
2022-10-26T05:25:29.909Z,931.7
2022-10-26T05:27:13.310Z,930.6
2022-10-26T05:28:56.833Z,928.3
2022-10-26T05:30:40.132Z,926.3
2022-10-26T05:32:23.516Z,924.7
2022-10-26T05:34:06.886Z,922.5
2022-10-26T05:35:50.277Z,923.3
2022-10-26T05:39:16.821Z,926.6
2022-10-26T05:41:00.159Z,928.4
2022-10-26T05:42:43.587Z,921.7
2022-10-26T05:44:26.940Z,919
2022-10-26T05:46:10.379Z,920.7
2022-10-26T05:47:53.762Z,924.6
2022-10-26T05:49:37.127Z,924.6
2022-10-26T05:54:46.385Z,924.2
2022-10-26T05:56:29.766Z,922.5
2022-10-26T05:58:13.211Z,919.6
2022-10-26T05:59:56.557Z,919.4
2022-10-26T06:01:39.985Z,919.8
2022-10-26T06:03:23.430Z,917.2
2022-10-26T06:05:06.765Z,914.8
2022-10-26T06:10:16.028Z,909.8
2022-10-26T06:11:59.425Z,909.5
2022-10-26T06:13:42.771Z,909.3
2022-10-26T06:15:26.186Z,909.6
2022-10-26T06:17:09.638Z,911.3
2022-10-26T06:18:52.969Z,910.6
2022-10-26T06:20:36.384Z,913.7
2022-10-26T06:25:45.625Z,907.4
2022-10-26T06:27:28.995Z,907.3
2022-10-26T06:29:12.388Z,911.2
2022-10-26T06:30:55.837Z,912.1
2022-10-26T06:32:39.217Z,914.5
2022-10-26T06:34:22.669Z,913.1
2022-10-26T06:36:06.029Z,912.3
2022-10-26T06:41:15.311Z,590.3
2022-10-26T06:42:58.640Z,513.6
2022-10-26T06:44:42.029Z,516.6
2022-10-26T06:46:25.477Z,523.5
2022-10-26T06:48:08.810Z,536.3
2022-10-26T06:49:52.230Z,552.3
2022-10-26T06:51:35.601Z,556.5
2022-10-26T06:56:44.834Z,569.7
2022-10-26T06:58:28.240Z,581.5
2022-10-26T07:00:11.720Z,591.4
2022-10-26T07:01:55.030Z,597.1
2022-10-26T07:03:38.474Z,596
2022-10-26T07:05:21.919Z,590.6
2022-10-26T07:07:05.221Z,586.8
2022-10-26T07:08:48.691Z,586
2022-10-26T07:10:32.346Z,589.7
2022-10-26T07:12:15.775Z,593
2022-10-26T07:13:59.117Z,603.3
2022-10-26T07:15:42.594Z,650.7
2022-10-26T07:17:25.969Z,674.5
2022-10-26T07:19:09.298Z,682.1
2022-10-26T07:20:52.742Z,679.1
2022-10-26T07:22:36.091Z,676.3
2022-10-26T07:26:02.623Z,698.3
2022-10-26T07:27:46.026Z,706.8
2022-10-26T07:29:29.399Z,713.5
2022-10-26T07:31:12.776Z,722.7
2022-10-26T07:32:56.153Z,729.5
2022-10-26T07:34:39.575Z,733.7
2022-10-26T07:36:22.985Z,741.8
2022-10-26T07:41:32.215Z,765.2
2022-10-26T07:43:15.602Z,781.2
2022-10-26T07:44:58.975Z,791
2022-10-26T07:46:42.428Z,800.2
2022-10-26T07:48:25.759Z,812.4
2022-10-26T07:50:09.182Z,824
2022-10-26T07:51:52.551Z,827.6
2022-10-26T07:57:01.875Z,838.8
2022-10-26T07:58:45.201Z,837.2
2022-10-26T08:00:28.626Z,835
2022-10-26T08:02:12.017Z,838.3
2022-10-26T08:03:55.392Z,839.7
2022-10-26T08:05:38.832Z,838.2
2022-10-26T08:07:22.181Z,838.3
2022-10-26T08:12:31.419Z,835.1
2022-10-26T08:14:14.847Z,835.5
2022-10-26T08:15:58.276Z,833.2
2022-10-26T08:17:41.617Z,833.1
2022-10-26T08:19:25.042Z,833.2
2022-10-26T08:21:08.397Z,829.8
2022-10-26T08:22:51.797Z,829.2
2022-10-26T08:28:01.040Z,828.7
2022-10-26T08:29:44.488Z,829.7
2022-10-26T08:31:27.827Z,828.1
2022-10-26T08:33:11.263Z,825.3
2022-10-26T08:34:54.686Z,824.3
2022-10-26T08:36:38.023Z,823.6
2022-10-26T08:38:21.442Z,822.1
2022-10-26T08:40:04.810Z,820.5
2022-10-26T08:41:48.564Z,821.7
2022-10-26T08:43:32.193Z,820.3
2022-10-26T08:45:15.412Z,821.4
2022-10-26T08:46:58.754Z,828.1
2022-10-26T08:48:42.094Z,833.6
2022-10-26T08:50:25.533Z,841.1
2022-10-26T08:52:08.891Z,851.5
2022-10-26T08:53:52.299Z,860.4
2022-10-26T08:55:36.010Z,873.8
2022-10-26T08:57:19.424Z,879
2022-10-26T08:59:02.837Z,878.6
2022-10-26T09:00:46.174Z,888.1
2022-10-26T09:02:29.623Z,898.5
2022-10-26T09:04:12.968Z,900.1
2022-10-26T09:05:56.373Z,893.7
2022-10-26T09:07:39.834Z,888.3
2022-10-26T09:09:23.501Z,886.8
2022-10-26T09:11:06.868Z,888.3
2022-10-26T09:12:50.331Z,892.6
2022-10-26T09:14:33.695Z,894.5
2022-10-26T09:16:17.040Z,897.2
2022-10-26T09:18:00.467Z,901.8
2022-10-26T09:19:43.833Z,906.2
2022-10-26T09:21:27.319Z,911
2022-10-26T09:24:53.749Z,919.4
2022-10-26T09:26:37.102Z,924.3
2022-10-26T09:28:20.515Z,925.1
2022-10-26T09:30:03.956Z,925.7
2022-10-26T09:31:47.296Z,924.8
2022-10-26T09:33:30.749Z,923
2022-10-26T09:35:14.162Z,920.3
2022-10-26T09:36:57.603Z,916.1
2022-10-26T09:38:41.187Z,917.8
2022-10-26T09:40:24.598Z,920.2
2022-10-26T09:42:08.043Z,927
2022-10-26T09:43:51.373Z,926.3
2022-10-26T09:45:34.813Z,931.7
2022-10-26T09:47:18.278Z,935.8
2022-10-26T09:49:01.597Z,935.7
2022-10-26T09:50:45.001Z,943.7
2022-10-26T09:52:28.693Z,953.3
2022-10-26T09:54:12.125Z,977.7
2022-10-26T09:55:55.461Z,999.2
2022-10-26T09:57:38.884Z,1007.7
2022-10-26T09:59:22.240Z,1024.1
2022-10-26T10:01:05.645Z,1045.8
2022-10-26T10:02:49.087Z,1054
2022-10-26T10:04:32.455Z,1054
2022-10-26T10:06:16.140Z,1053.5
2022-10-26T10:07:59.542Z,1055.2
2022-10-26T10:09:42.969Z,1063.8
2022-10-26T10:11:26.357Z,1070.1
2022-10-26T10:13:09.735Z,1094.7
2022-10-26T10:14:53.191Z,1125.1
2022-10-26T10:16:36.539Z,1120.5
2022-10-26T10:18:19.935Z,1119.3
2022-10-26T10:20:03.614Z,1124.3
2022-10-26T10:21:47.056Z,1133.1
2022-10-26T10:23:30.400Z,1140.4
2022-10-26T10:25:13.819Z,1144.4
2022-10-26T10:26:57.286Z,1140.2
2022-10-26T10:28:40.608Z,1134.3
2022-10-26T10:30:24.016Z,1137.6
2022-10-26T10:32:07.429Z,1147.7
2022-10-26T10:33:51.150Z,1154.7
2022-10-26T10:35:34.481Z,1166
2022-10-26T10:37:17.906Z,1230.1
2022-10-26T10:40:44.685Z,1215
2022-10-26T10:42:28.106Z,1209.1
2022-10-26T10:44:11.474Z,1205.8
2022-10-26T10:49:20.723Z,1196
2022-10-26T10:51:04.160Z,1196.7
2022-10-26T10:52:47.547Z,1136.2
2022-10-26T10:54:30.917Z,937.3
2022-10-26T10:56:14.311Z,896.3
2022-10-26T10:57:57.683Z,836.5
2022-10-26T10:59:41.135Z,804.2
2022-10-26T11:04:50.367Z,713.6
2022-10-26T11:06:33.757Z,711.8
2022-10-26T11:08:17.127Z,726.6
2022-10-26T11:10:00.534Z,730.8
2022-10-26T11:11:43.959Z,747.3
2022-10-26T11:13:27.330Z,769.8
2022-10-26T11:15:10.743Z,775.8
2022-10-26T11:16:54.147Z,774.3
2022-10-26T11:18:37.846Z,775.3
2022-10-26T11:20:21.203Z,779.5
2022-10-26T11:22:04.613Z,785.6
2022-10-26T11:23:48.062Z,792.6
2022-10-26T11:25:31.381Z,793.5
2022-10-26T11:27:14.819Z,806.3
2022-10-26T11:28:58.261Z,845.6
2022-10-26T11:30:41.577Z,829.6
2022-10-26T11:34:08.087Z,809.6
2022-10-26T11:35:51.456Z,815.3
2022-10-26T11:37:34.857Z,819.6
2022-10-26T11:39:18.287Z,819.4
2022-10-26T11:41:01.669Z,822.1
2022-10-26T11:42:45.049Z,824.7
2022-10-26T11:44:28.437Z,823.8
2022-10-26T11:46:11.825Z,828.4
2022-10-26T11:47:55.526Z,834.7
2022-10-26T11:49:38.950Z,844.1
2022-10-26T11:51:22.372Z,852.2
2022-10-26T11:53:05.724Z,863.4
2022-10-26T11:54:49.136Z,871.2
2022-10-26T11:56:32.516Z,884.3
2022-10-26T11:58:15.956Z,894.7
2022-10-26T11:59:59.365Z,898.3
2022-10-26T12:01:43.016Z,906.6
2022-10-26T12:03:26.417Z,915.4
2022-10-26T12:05:09.809Z,920.4
2022-10-26T12:06:53.233Z,926.1
2022-10-26T12:08:36.599Z,933.5
2022-10-26T12:10:20.018Z,945.4
2022-10-26T12:12:03.423Z,964.5
2022-10-26T12:13:46.835Z,992.5
2022-10-26T12:15:30.474Z,1048.7
2022-10-26T12:17:13.905Z,1069
2022-10-26T12:18:57.373Z,1071.5
2022-10-26T12:20:40.675Z,1048.4
2022-10-26T12:22:24.076Z,1042.3
2022-10-26T12:24:07.511Z,1044.7
2022-10-26T12:25:50.876Z,1044
2022-10-26T12:27:34.396Z,1041.5
2022-10-26T12:31:00.727Z,1040.5
2022-10-26T12:32:44.154Z,1045.1
2022-10-26T12:34:27.555Z,1048.3
2022-10-26T12:36:10.917Z,1053.5
2022-10-26T12:37:54.339Z,1055.5
2022-10-26T12:39:37.795Z,1076.1
2022-10-26T12:41:21.094Z,1143.3
2022-10-26T12:43:04.519Z,1137.8
2022-10-26T12:44:48.204Z,1145.9
2022-10-26T12:46:31.641Z,1154.7
2022-10-26T12:48:15.004Z,1165.8
2022-10-26T12:49:58.401Z,1168.6
2022-10-26T12:51:41.782Z,1156.2
2022-10-26T12:53:25.201Z,1144.2
2022-10-26T12:55:08.608Z,1137
2022-10-26T12:56:51.985Z,1135.5
2022-10-26T13:00:18.465Z,1142.8
2022-10-26T13:02:01.924Z,1148.3
2022-10-26T13:03:45.256Z,1149.5
2022-10-26T13:05:28.664Z,1151.7
2022-10-26T13:07:12.606Z,1151.4
2022-10-26T13:08:55.424Z,1152.8
2022-10-26T13:10:38.858Z,1153.2
2022-10-26T13:12:22.225Z,1155.2
2022-10-26T13:14:05.981Z,1157.7
2022-10-26T13:15:49.312Z,1160.4
2022-10-26T13:17:32.737Z,1160.7
2022-10-26T13:19:16.218Z,1161.2
2022-10-26T13:20:59.515Z,1159.4
2022-10-26T13:22:42.951Z,1155.5
2022-10-26T13:24:26.302Z,1155.2
2022-10-26T13:26:09.709Z,1156.1
2022-10-26T13:29:36.249Z,1154.9
2022-10-26T13:31:19.584Z,1152.2
2022-10-26T13:33:03.013Z,1154.1
2022-10-26T13:34:46.498Z,1153.3
2022-10-26T13:36:29.770Z,1152.5
2022-10-26T13:38:13.200Z,1152.8
2022-10-26T13:39:56.553Z,1149.2
2022-10-26T13:41:39.951Z,1146.7
2022-10-26T13:43:23.671Z,1141.8
2022-10-26T13:45:07.116Z,1137.8
2022-10-26T13:46:50.475Z,1135.2
2022-10-26T13:48:33.826Z,1135.6
2022-10-26T13:50:17.309Z,1136.6
2022-10-26T13:52:00.686Z,1132.1
2022-10-26T13:53:44.060Z,1130.3
2022-10-26T13:55:27.506Z,1129.6
2022-10-26T13:58:53.989Z,1129.6
2022-10-26T14:00:37.439Z,1132
2022-10-26T14:02:20.708Z,1130
2022-10-26T14:04:04.089Z,1129.4
2022-10-26T14:05:47.516Z,1127.8
2022-10-26T14:07:30.893Z,1126.4
2022-10-26T14:09:14.277Z,1124.3
2022-10-26T14:10:57.721Z,1123.1
2022-10-26T14:14:24.149Z,1120
2022-10-26T14:16:07.615Z,1117.6
2022-10-26T14:17:50.944Z,1118.6
2022-10-26T14:19:34.375Z,1116.4
2022-10-26T14:21:17.811Z,1110.5
2022-10-26T14:23:01.177Z,1106.3
2022-10-26T14:24:44.527Z,1102.5
2022-10-26T14:26:27.967Z,1101.3
2022-10-26T14:28:11.675Z,1102
2022-10-26T14:29:55.111Z,1103
2022-10-26T14:31:38.412Z,1101.5
2022-10-26T14:33:21.851Z,1100.8
2022-10-26T14:35:05.221Z,1100.8
2022-10-26T14:36:48.636Z,1100.3
2022-10-26T14:38:32.053Z,1100.3
2022-10-26T14:40:15.409Z,1100.3
2022-10-26T14:41:59.109Z,1098.9
2022-10-26T14:43:42.511Z,1099
2022-10-26T14:45:25.934Z,1094.4
2022-10-26T14:47:09.288Z,1093.4
2022-10-26T14:48:52.786Z,1093.7
2022-10-26T14:50:36.141Z,1099.8
2022-10-26T14:52:19.540Z,1106.3
2022-10-26T14:54:02.918Z,1107.7
2022-10-26T14:55:46.582Z,1111.9
2022-10-26T14:57:30.019Z,1114.8
2022-10-26T14:59:13.377Z,1114.7
2022-10-26T15:00:56.795Z,1119.3
2022-10-26T15:02:40.281Z,1123.1
2022-10-26T15:04:23.574Z,1128.6
2022-10-26T15:06:06.996Z,1137.1
2022-10-26T15:07:50.355Z,1147.4
2022-10-26T15:09:34.119Z,1156.5
2022-10-26T15:11:17.517Z,1172.4
2022-10-26T15:13:00.968Z,1184.5
2022-10-26T15:14:44.267Z,1194.5
2022-10-26T15:16:27.646Z,1206.4
2022-10-26T15:18:11.154Z,1213
2022-10-26T15:19:54.478Z,1233.4
2022-10-26T15:25:03.684Z,1256.7
2022-10-26T15:26:47.080Z,1254.6
2022-10-26T15:28:30.519Z,1256.5
2022-10-26T15:30:13.867Z,1257.2
2022-10-26T15:31:57.278Z,1260.2
2022-10-26T15:33:40.763Z,1265.8
2022-10-26T15:35:24.054Z,1270.6
2022-10-26T15:38:50.577Z,1274.4
2022-10-26T15:40:34.031Z,1275.3
2022-10-26T15:42:17.331Z,1277.2
2022-10-26T15:44:00.787Z,1282
2022-10-26T15:45:44.127Z,1285
2022-10-26T15:47:27.529Z,1286.3
2022-10-26T15:49:10.908Z,1285.3
2022-10-26T15:50:54.315Z,1284.8
2022-10-26T15:52:38.018Z,1286.7
2022-10-26T15:54:21.410Z,1295.8
2022-10-26T15:56:04.888Z,1300
2022-10-26T15:57:48.200Z,1305.2
2022-10-26T15:59:31.614Z,1315.8
2022-10-26T16:01:15.060Z,1324.2
2022-10-26T16:02:58.415Z,1326.8
2022-10-26T16:04:41.817Z,1328.7
2022-10-26T16:06:25.497Z,1341.3
2022-10-26T16:08:08.952Z,1356.4
2022-10-26T16:09:52.273Z,1370
2022-10-26T16:11:35.776Z,1381.3
2022-10-26T16:13:19.170Z,1386.5
2022-10-26T16:15:02.482Z,1395.1
2022-10-26T16:16:45.899Z,1400.6
2022-10-26T16:18:29.270Z,1408.1
2022-10-26T16:21:55.746Z,1426.3
2022-10-26T16:23:39.186Z,1429.6
2022-10-26T16:25:22.533Z,1429
2022-10-26T16:27:05.945Z,1427.8
2022-10-26T16:28:49.331Z,1427.5
2022-10-26T16:30:32.722Z,1432.6
2022-10-26T16:32:16.217Z,1434.2
2022-10-26T16:37:25.409Z,1447.9
2022-10-26T16:39:08.757Z,1447.6
2022-10-26T16:40:52.155Z,1454.1
2022-10-26T16:42:35.596Z,1460.4
2022-10-26T16:44:18.959Z,1467.8
2022-10-26T16:46:02.375Z,1476.3
2022-10-26T16:47:45.800Z,1479.8
2022-10-26T16:49:29.138Z,1477.7
2022-10-26T16:52:55.636Z,1485
2022-10-26T16:54:39.003Z,1486.8
2022-10-26T16:56:22.407Z,1492.4
2022-10-26T16:58:05.846Z,1496.3
2022-10-26T16:59:49.241Z,1496.5
2022-10-26T17:01:32.603Z,1495.4
2022-10-26T17:03:16.049Z,1498
2022-10-26T17:04:59.375Z,1494.6
2022-10-26T17:08:25.918Z,1491.5
2022-10-26T17:10:09.281Z,1496.1
2022-10-26T17:11:52.696Z,1500.3
2022-10-26T17:13:36.115Z,1501.3
2022-10-26T17:15:19.458Z,1511
2022-10-26T17:17:02.858Z,1519.7
2022-10-26T17:18:46.288Z,1523.5
2022-10-26T17:20:29.625Z,1527
2022-10-26T17:23:56.131Z,1532.8
2022-10-26T17:25:39.508Z,1537
2022-10-26T17:27:23.062Z,1538.1
2022-10-26T17:29:06.491Z,1539.8
2022-10-26T17:30:49.845Z,1542.4
2022-10-26T17:32:33.250Z,1545.8
2022-10-26T17:34:16.617Z,1550.3
2022-10-26T17:36:00.020Z,1551.1
2022-10-26T17:39:26.510Z,1551
2022-10-26T17:41:09.890Z,1554.6
2022-10-26T17:42:53.182Z,1558
2022-10-26T17:44:36.785Z,1557.3
2022-10-26T17:46:20.085Z,1554.3
2022-10-26T17:48:03.485Z,1585.3
2022-10-26T17:49:46.824Z,1578.4
2022-10-26T17:51:30.128Z,1572.2
2022-10-26T17:54:56.720Z,1566.9
2022-10-26T17:56:40.039Z,1563
2022-10-26T17:58:23.498Z,1560.5
2022-10-26T18:00:06.989Z,1561
2022-10-26T18:01:50.323Z,1564.4
2022-10-26T18:03:33.621Z,1564.2
2022-10-26T18:05:17.173Z,1566.5
2022-10-26T18:10:26.367Z,1572
2022-10-26T18:12:09.747Z,1574.2
2022-10-26T18:13:53.215Z,1574.4
2022-10-26T18:15:36.469Z,1574.5
2022-10-26T18:17:19.962Z,1571.8
2022-10-26T18:19:03.392Z,1572.8
2022-10-26T18:20:46.638Z,1575.7
2022-10-26T18:22:30.006Z,1577.7
2022-10-26T18:24:13.692Z,1577.2
2022-10-26T18:25:57.156Z,1575.3
2022-10-26T18:27:40.540Z,1576.1
2022-10-26T18:29:24.041Z,1573.2
2022-10-26T18:31:07.354Z,1567.6
2022-10-26T18:32:50.668Z,1563.7
2022-10-26T18:34:34.094Z,1563.7
2022-10-26T18:36:17.591Z,1562.7
2022-10-26T18:39:43.954Z,1560.4
2022-10-26T18:41:27.547Z,1562.3
2022-10-26T18:43:10.875Z,1561.1
2022-10-26T18:44:54.142Z,1559
2022-10-26T18:46:37.672Z,1568.5
2022-10-26T18:48:21.018Z,1575.8
2022-10-26T18:50:04.457Z,1581.5
2022-10-26T18:51:47.809Z,1576.6
2022-10-26T18:53:31.487Z,1568.8
2022-10-26T18:55:14.886Z,1560.1
2022-10-26T18:56:58.370Z,1555.6
2022-10-26T18:58:41.678Z,1546.7
2022-10-26T19:00:25.036Z,1542.6
2022-10-26T19:02:08.519Z,1539.1
2022-10-26T19:03:51.925Z,1538.7
2022-10-26T19:05:35.315Z,1535
2022-10-26T19:09:01.704Z,1517
2022-10-26T19:10:45.063Z,1512
2022-10-26T19:12:28.467Z,1509.4
2022-10-26T19:14:12.021Z,1507.7
2022-10-26T19:15:55.308Z,1505.5
2022-10-26T19:17:38.740Z,1507
2022-10-26T19:19:22.029Z,1507.7
2022-10-26T19:24:31.297Z,1497.3
2022-10-26T19:26:14.688Z,1490.3
2022-10-26T19:27:58.113Z,1486.7
2022-10-26T19:29:41.461Z,1485.1
2022-10-26T19:31:24.872Z,1482.1
2022-10-26T19:33:08.313Z,1478.8
2022-10-26T19:34:51.658Z,1474.4
2022-10-26T19:36:35.075Z,1474.4
2022-10-26T19:38:18.760Z,1469.5
2022-10-26T19:40:02.219Z,1462
2022-10-26T19:41:45.548Z,1456.5
2022-10-26T19:43:28.960Z,1456.7
2022-10-26T19:45:12.340Z,1451.1
2022-10-26T19:48:39.163Z,1444.7
2022-10-26T19:50:22.538Z,1442.4
2022-10-26T19:52:06.286Z,1440.2
2022-10-26T19:53:49.650Z,1437
2022-10-26T19:55:33.050Z,1439.3
2022-10-26T19:57:16.414Z,1438.1
2022-10-26T19:58:59.813Z,1432.3
2022-10-26T20:00:43.248Z,1428.7
2022-10-26T20:02:26.639Z,1425.2
2022-10-26T20:04:10.010Z,1421.4
2022-10-26T20:07:36.547Z,1415.5
2022-10-26T20:09:19.908Z,1414.4
2022-10-26T20:11:03.294Z,1410.7
2022-10-26T20:12:46.669Z,1411.4
2022-10-26T20:14:30.051Z,1410.5
2022-10-26T20:16:13.496Z,1402
2022-10-26T20:17:56.857Z,1398.8
2022-10-26T20:23:06.110Z,1394.8
2022-10-26T20:24:49.499Z,1392.4
2022-10-26T20:26:32.938Z,1391
2022-10-26T20:28:16.277Z,1387.6
2022-10-26T20:29:59.699Z,1383.3
2022-10-26T20:31:43.077Z,1377
2022-10-26T20:33:26.480Z,1369.4
2022-10-26T20:35:09.907Z,1365.4
2022-10-26T20:38:36.357Z,1357.9
2022-10-26T20:40:19.759Z,1358.1
2022-10-26T20:42:03.183Z,1354.6
2022-10-26T20:43:46.537Z,1350.1
2022-10-26T20:45:29.952Z,1347.2
2022-10-26T20:47:13.326Z,1344.2
2022-10-26T20:48:56.715Z,1341
2022-10-26T20:50:40.154Z,1339.2
2022-10-26T20:54:06.594Z,1338.9
2022-10-26T20:55:49.995Z,1335.8
2022-10-26T20:57:33.374Z,1331.8
2022-10-26T20:59:16.789Z,1327.6
2022-10-26T21:01:00.198Z,1325.4
2022-10-26T21:02:43.571Z,1326
2022-10-26T21:04:26.957Z,1324.4
2022-10-26T21:06:10.397Z,1318.5
2022-10-26T21:09:36.844Z,1309
2022-10-26T21:11:20.237Z,1304.6
2022-10-26T21:13:03.687Z,1305.1
2022-10-26T21:14:47.025Z,1306.1
2022-10-26T21:16:30.457Z,1304.5
2022-10-26T21:18:13.818Z,1301.5
2022-10-26T21:19:57.213Z,1299.6
2022-10-26T21:21:40.651Z,1296.5
2022-10-26T21:23:24.325Z,1295.4
2022-10-26T21:25:07.694Z,1295.8
2022-10-26T21:26:51.106Z,1293.1
2022-10-26T21:28:34.534Z,1292.5
2022-10-26T21:30:17.895Z,1291.8
2022-10-26T21:32:01.288Z,1292.4
2022-10-26T21:33:44.726Z,1288.3
2022-10-26T21:35:28.079Z,1281.7
2022-10-26T21:40:37.332Z,1269.9
2022-10-26T21:42:20.741Z,1264.5
2022-10-26T21:44:04.116Z,1262.7
2022-10-26T21:45:47.503Z,1262.3
2022-10-26T21:47:30.936Z,1261.4
2022-10-26T21:49:14.301Z,1261.3
2022-10-26T21:50:57.711Z,1263.5
2022-10-26T21:56:06.943Z,1254.9
2022-10-26T21:57:50.382Z,1251.2
2022-10-26T21:59:33.735Z,1248.4
2022-10-26T22:01:17.164Z,1245.7
2022-10-26T22:03:00.594Z,1245.7
2022-10-26T22:04:43.914Z,1244.7
2022-10-26T22:06:27.346Z,1240.8
2022-10-26T22:08:10.710Z,1236.7
2022-10-26T22:11:37.191Z,1228.5
2022-10-26T22:13:20.635Z,1223.4
2022-10-26T22:15:03.993Z,1222.4
2022-10-26T22:16:47.394Z,1223.5
2022-10-26T22:18:30.833Z,1219.1
2022-10-26T22:20:14.179Z,1214.7
2022-10-26T22:21:57.596Z,1215.3
2022-10-26T22:23:40.960Z,1212.8
2022-10-26T22:27:07.444Z,1206.8
2022-10-26T22:28:50.900Z,1205.1
2022-10-26T22:30:34.230Z,1208.6
2022-10-26T22:32:17.643Z,1207.2
2022-10-26T22:34:01.013Z,1200.4
2022-10-26T22:35:44.404Z,1197.3
2022-10-26T22:37:27.841Z,1196.8
2022-10-26T22:39:11.206Z,1195
2022-10-26T22:42:37.685Z,1186.5
2022-10-26T22:44:21.128Z,1181
2022-10-26T22:46:04.492Z,1175.1
2022-10-26T22:47:47.883Z,1173.1
2022-10-26T22:49:31.326Z,1173.1
2022-10-26T22:51:14.646Z,1169
2022-10-26T22:52:58.093Z,1167.5
2022-10-26T22:54:41.464Z,1167.4
2022-10-26T22:58:07.932Z,1161.4
2022-10-26T22:59:51.310Z,1156.7
2022-10-26T23:01:34.717Z,1154.1
2022-10-26T23:03:18.133Z,1151.2
2022-10-26T23:05:01.507Z,1150
2022-10-26T23:06:44.906Z,1149.7
2022-10-26T23:08:28.332Z,1147.3
2022-10-26T23:10:11.696Z,1143.8
2022-10-26T23:13:38.176Z,1140.2
2022-10-26T23:15:21.621Z,1138.7
2022-10-26T23:17:04.955Z,1136.5
2022-10-26T23:18:48.379Z,1134.8
2022-10-26T23:20:31.751Z,1133.7
2022-10-26T23:22:15.142Z,1132.3
2022-10-26T23:23:58.587Z,1130.4
2022-10-26T23:25:41.941Z,1128.6
2022-10-26T23:27:25.706Z,1128.1
2022-10-26T23:29:09.039Z,1125.4
2022-10-26T23:30:52.470Z,1122.7
2022-10-26T23:32:35.844Z,1119.8
2022-10-26T23:34:19.495Z,1116.2
2022-10-26T23:36:02.671Z,1110.5
2022-10-26T23:37:46.045Z,1107.3
2022-10-26T23:39:29.431Z,1105.8
2022-10-26T23:41:13.108Z,1104.4
2022-10-26T23:42:56.550Z,1102
2022-10-26T23:44:39.927Z,1099.5
2022-10-26T23:46:23.316Z,1099.6
2022-10-26T23:48:06.759Z,1097.2
2022-10-26T23:49:50.121Z,1095.6
2022-10-26T23:51:33.518Z,1096.5
2022-10-26T23:53:16.913Z,1094.5
2022-10-26T23:56:43.374Z,1090.4
2022-10-26T23:58:26.797Z,1090.7
